Crater Lake, Oregon
Current Conditions -  °F | °C
As of 3:53 PM on Monday 20 Oct 2014 (Local Time) from KLMT Reporting Station
Light Rain Light Rain  
Wind Chill: 11°   Ceiling: 3600
Heat Index: 11°   Visibility: 10mi
Dew Point:   Wind: 9mph
Humidity: 71%   Direction: 260°W
Pressure: 29.87"   Gusts: NA
Location:  42.58°N, 121.86°W
Report Text: KLMT 202253Z AUTO 26008KT 10SM -RA BKN036 OVC044 11/06 A2987 RMK AO2 RAB13 SLP099 P0001 T01060056
Loading
Personal Weather Stations






























Interactive Weather Map
Tropical Storm Tracking
New forecast layout! Learn more

10-Day Weather Forecast

Advertisements
Track Severe Weather on mobile